Карточка аэропорта UMKK

Внимание!
Информация на этой странице в стадии наполнения.
Если вы не увидели какой-то информации, или заметили неточность - пожалуйста сообщите нам!
Спасибо!
Команда RU-STAFF
Название аэропортаХраброво
Название аэропорта (англ.)Khrabrovo
Превышение43 ft. (13.1 m.)
Координаты54°53.4', 20°35.55'
Высота перехода4000ft
Эшелон переходаFL50 (QNH>=1013hPa); FL60 (QNH<1013hPa); FL50 (QNH<977hPa);
Коды ответчика6620-6637
Зона ОрВДКалининград РПИ (UMKK)
Данные METARUMKK 130604Z 10006MPS 8000 -SHRA BKN027CB 20/20 Q1005 R06/290095 NOSIG RMK QFE753/1004
Проноз погоды (TAF)UMKK 130454Z 1306/1406 10007G12MPS 6000 FEW010 BKN016CB TEMPO 1306/1310 17010G16MPS 1000 TSRAGS BKN004 BKN010CB TEMPO 1310/1315 3000 -TSRA BKN014CB BECMG 1310/1313 23010G17MPS BECMG 1320/1322 24007G14MPS BECMG 1400/1402 VRB01MPS
NOTAMshow/hide NOTAM
AWOS   TABLE

Информация о ВПП

ВПП Длина ВПП (м.) Покрытие Курс ВПП Частота ILS
063350Асфальтобетон60110.3
243350Асфальтобетон240109.5

Диспетчерские позиции

Позывной Наименование органа УВД Частота
UMKK_TWRКалининград-Вышка127.2
UMKK_APPКалининград-Подход126.0



Спутниковое изображение